Flight Information

DEPARTURE
GRAND JUNCTION, CO
Elevation:
4861
Runways:
11/29 - 10503x150 - ASPH-E
4/22 - 5501x75 - ASPH-G
ATIS:
118.55
Ground:
121.7
Tower:
GRAND JUNCTION TOWER 118.1
DESTINATION
ASPEN, CO
Elevation:
7837
TPA:
8837 (est.)
Runways:
15/33 - 8006x100 - ASPH-G
ATIS:
120.4
Tower:
ASPEN TOWER 118.85
Ground:
121.9


77.4 NM85° True-13° Var71° HDG

Flight Plan:
(click to file on line)

1. Type
2. Aircraft Identification
3. Aircraft Type / Special Equipment
4. True Airspeed
kts
5. Departure Airport
(ICAO code)
6. Arriving Airport
(ICAO code)
7. Cruising Altitude
ft
8. Alternate Airport
(ICAO code)
9. Route of Flight
10. Remarks


00:00:00 Departure ATIS: Destination ATIS:

Clearance Limit:
Route:
Altitude: Expect in minutes
Frequency:
Transponder: (7500 Hijack / 7600 Lost Comms / 7700 Emergency)


KGJT 121653Z 16007KT 10SM CLR 16/M04 A3024 RMK AO2 SLP199 T01561044
Time: 2021-05-12T16:53:00Z
1620840942
Winds: 160 @ 7 kts
Visibility: 10.0 sm
Clouds (AGL): CLR
Temperature: 15.6 C
Dew Point: -4.4 C
Pressure: 30.239174 in Hgbr

KASE 121653Z 36004KT 10SM CLR 11/M05 A3029 RMK AO2 SLP194 T01061050
Time: 2021-05-12T16:53:00Z
1620840942
Winds: 360 @ 4 kts
Visibility: 10.0 sm
Clouds (AGL): CLR
Temperature: 10.6 C
Dew Point: -5.0 C
Pressure: 30.28937 in Hgbr


Notes:

Data extracted from FAA Digital Chart Supplement. Effective: 0901Z Thursday, APR 22, 2021 to 0901Z Thursday, JUN 17, 2021
Current ATIS data is provided courtisy of PilotEdge.